sensor_id;sensor_type;location;lat;lon;timestamp;P1;durP1;ratioP1;P2;durP2;ratioP2
68457;SDS011;65384;52.016;5.428;2023-05-15T00:01:36;19.77;;;8.65;;
68457;SDS011;65384;52.016;5.428;2023-05-15T00:04:02;19.73;;;8.60;;
68457;SDS011;65384;52.016;5.428;2023-05-15T00:06:28;16.77;;;8.32;;
68457;SDS011;65384;52.016;5.428;2023-05-15T00:08:53;19.17;;;8.15;;
68457;SDS011;65384;52.016;5.428;2023-05-15T00:11:19;18.80;;;8.27;;
68457;SDS011;65384;52.016;5.428;2023-05-15T00:13:45;24.10;;;9.40;;
68457;SDS011;65384;52.016;5.428;2023-05-15T00:16:10;21.17;;;8.93;;
68457;SDS011;65384;52.016;5.428;2023-05-15T00:18:36;19.80;;;8.68;;
68457;SDS011;65384;52.016;5.428;2023-05-15T00:21:01;25.77;;;9.85;;
68457;SDS011;65384;52.016;5.428;2023-05-15T00:23:26;21.90;;;9.45;;
68457;SDS011;65384;52.016;5.428;2023-05-15T00:25:52;21.33;;;8.73;;
68457;SDS011;65384;52.016;5.428;2023-05-15T00:28:17;19.33;;;9.13;;
68457;SDS011;65384;52.016;5.428;2023-05-15T00:30:43;21.55;;;8.90;;
68457;SDS011;65384;52.016;5.428;2023-05-15T00:33:08;17.25;;;8.65;;
68457;SDS011;65384;52.016;5.428;2023-05-15T00:35:33;18.50;;;8.90;;
68457;SDS011;65384;52.016;5.428;2023-05-15T00:37:59;19.48;;;9.05;;
68457;SDS011;65384;52.016;5.428;2023-05-15T00:40:24;23.52;;;9.15;;
68457;SDS011;65384;52.016;5.428;2023-05-15T00:42:50;21.85;;;8.65;;
68457;SDS011;65384;52.016;5.428;2023-05-15T00:45:16;26.48;;;9.40;;
68457;SDS011;65384;52.016;5.428;2023-05-15T00:47:42;20.95;;;8.95;;
68457;SDS011;65384;52.016;5.428;2023-05-15T00:50:07;20.80;;;9.18;;
68457;SDS011;65384;52.016;5.428;2023-05-15T00:52:33;24.58;;;8.70;;
68457;SDS011;65384;52.016;5.428;2023-05-15T00:55:00;18.20;;;9.07;;
68457;SDS011;65384;52.016;5.428;2023-05-15T00:57:26;23.17;;;8.95;;
68457;SDS011;65384;52.016;5.428;2023-05-15T00:59:51;19.67;;;9.23;;
68457;SDS011;65384;52.016;5.428;2023-05-15T01:02:17;22.65;;;9.10;;
68457;SDS011;65384;52.016;5.428;2023-05-15T01:04:45;23.88;;;10.00;;
68457;SDS011;65384;52.016;5.428;2023-05-15T01:07:11;27.30;;;10.43;;
68457;SDS011;65384;52.016;5.428;2023-05-15T01:09:38;24.38;;;10.05;;
68457;SDS011;65384;52.016;5.428;2023-05-15T01:12:06;24.23;;;9.80;;
68457;SDS011;65384;52.016;5.428;2023-05-15T01:14:31;25.60;;;10.52;;
68457;SDS011;65384;52.016;5.428;2023-05-15T01:16:57;22.08;;;9.60;;
68457;SDS011;65384;52.016;5.428;2023-05-15T01:19:22;25.88;;;9.65;;
68457;SDS011;65384;52.016;5.428;2023-05-15T01:27:49;27.90;;;10.20;;
68457;SDS011;65384;52.016;5.428;2023-05-15T01:30:23;28.58;;;11.30;;
68457;SDS011;65384;52.016;5.428;2023-05-15T01:38:28;24.33;;;9.82;;
68457;SDS011;65384;52.016;5.428;2023-05-15T01:41:09;28.00;;;9.95;;
68457;SDS011;65384;52.016;5.428;2023-05-15T01:43:38;23.55;;;9.63;;
68457;SDS011;65384;52.016;5.428;2023-05-15T01:46:04;28.88;;;10.77;;
68457;SDS011;65384;52.016;5.428;2023-05-15T01:48:30;26.05;;;10.95;;
68457;SDS011;65384;52.016;5.428;2023-05-15T01:50:58;29.17;;;11.10;;
68457;SDS011;65384;52.016;5.428;2023-05-15T01:53:25;28.85;;;11.00;;
68457;SDS011;65384;52.016;5.428;2023-05-15T01:55:51;30.30;;;10.73;;
68457;SDS011;65384;52.016;5.428;2023-05-15T01:58:17;30.30;;;11.05;;
68457;SDS011;65384;52.016;5.428;2023-05-15T02:00:43;29.95;;;11.23;;
68457;SDS011;65384;52.016;5.428;2023-05-15T02:03:09;34.60;;;12.25;;
68457;SDS011;65384;52.016;5.428;2023-05-15T02:05:35;28.42;;;11.18;;
68457;SDS011;65384;52.016;5.428;2023-05-15T02:08:01;27.77;;;10.75;;
68457;SDS011;65384;52.016;5.428;2023-05-15T02:10:28;31.38;;;11.40;;
68457;SDS011;65384;52.016;5.428;2023-05-15T02:12:54;34.40;;;11.73;;
68457;SDS011;65384;52.016;5.428;2023-05-15T02:15:20;30.67;;;12.02;;
68457;SDS011;65384;52.016;5.428;2023-05-15T02:17:46;36.60;;;12.35;;
68457;SDS011;65384;52.016;5.428;2023-05-15T02:20:11;40.92;;;11.88;;
68457;SDS011;65384;52.016;5.428;2023-05-15T02:22:38;39.05;;;12.07;;
68457;SDS011;65384;52.016;5.428;2023-05-15T02:25:03;39.70;;;14.02;;
68457;SDS011;65384;52.016;5.428;2023-05-15T02:27:34;43.08;;;13.00;;
68457;SDS011;65384;52.016;5.428;2023-05-15T02:37:51;50.97;;;16.45;;
68457;SDS011;65384;52.016;5.428;2023-05-15T02:40:18;50.83;;;16.15;;
68457;SDS011;65384;52.016;5.428;2023-05-15T02:42:45;48.75;;;16.17;;
68457;SDS011;65384;52.016;5.428;2023-05-15T02:45:11;59.90;;;17.35;;
68457;SDS011;65384;52.016;5.428;2023-05-15T02:47:36;57.15;;;16.52;;
68457;SDS011;65384;52.016;5.428;2023-05-15T02:50:02;55.53;;;16.83;;
68457;SDS011;65384;52.016;5.428;2023-05-15T02:52:28;57.35;;;17.23;;
68457;SDS011;65384;52.016;5.428;2023-05-15T02:54:53;52.05;;;16.77;;
68457;SDS011;65384;52.016;5.428;2023-05-15T02:57:19;54.95;;;17.20;;
68457;SDS011;65384;52.016;5.428;2023-05-15T02:59:44;57.15;;;17.38;;
68457;SDS011;65384;52.016;5.428;2023-05-15T03:02:09;53.72;;;16.92;;
68457;SDS011;65384;52.016;5.428;2023-05-15T03:04:35;51.85;;;17.17;;
68457;SDS011;65384;52.016;5.428;2023-05-15T03:07:00;55.28;;;16.52;;
68457;SDS011;65384;52.016;5.428;2023-05-15T03:09:25;58.95;;;18.10;;
68457;SDS011;65384;52.016;5.428;2023-05-15T03:11:51;53.53;;;17.98;;
68457;SDS011;65384;52.016;5.428;2023-05-15T03:14:16;58.00;;;19.10;;
68457;SDS011;65384;52.016;5.428;2023-05-15T03:16:42;61.70;;;17.92;;
68457;SDS011;65384;52.016;5.428;2023-05-15T03:19:07;59.45;;;18.25;;
68457;SDS011;65384;52.016;5.428;2023-05-15T03:21:32;60.95;;;18.17;;
68457;SDS011;65384;52.016;5.428;2023-05-15T03:23:59;61.45;;;18.65;;
68457;SDS011;65384;52.016;5.428;2023-05-15T03:26:25;55.47;;;18.30;;
68457;SDS011;65384;52.016;5.428;2023-05-15T03:28:50;58.63;;;18.05;;
68457;SDS011;65384;52.016;5.428;2023-05-15T03:31:16;57.03;;;17.90;;
68457;SDS011;65384;52.016;5.428;2023-05-15T03:33:41;57.50;;;17.83;;
68457;SDS011;65384;52.016;5.428;2023-05-15T03:36:09;55.05;;;18.17;;
68457;SDS011;65384;52.016;5.428;2023-05-15T03:38:34;56.28;;;17.20;;
68457;SDS011;65384;52.016;5.428;2023-05-15T03:41:00;61.55;;;17.55;;
68457;SDS011;65384;52.016;5.428;2023-05-15T03:43:25;54.80;;;16.92;;
68457;SDS011;65384;52.016;5.428;2023-05-15T03:45:50;60.22;;;18.23;;
68457;SDS011;65384;52.016;5.428;2023-05-15T03:48:16;52.05;;;17.02;;
68457;SDS011;65384;52.016;5.428;2023-05-15T03:50:42;60.25;;;18.45;;
68457;SDS011;65384;52.016;5.428;2023-05-15T03:53:08;58.35;;;18.40;;
68457;SDS011;65384;52.016;5.428;2023-05-15T03:55:34;61.15;;;19.70;;
68457;SDS011;65384;52.016;5.428;2023-05-15T03:57:59;56.70;;;18.27;;
68457;SDS011;65384;52.016;5.428;2023-05-15T04:00:25;60.10;;;19.00;;
68457;SDS011;65384;52.016;5.428;2023-05-15T04:02:50;59.17;;;18.13;;
68457;SDS011;65384;52.016;5.428;2023-05-15T04:05:15;60.97;;;19.25;;
68457;SDS011;65384;52.016;5.428;2023-05-15T04:07:43;55.95;;;18.05;;
68457;SDS011;65384;52.016;5.428;2023-05-15T04:10:09;55.65;;;17.52;;
68457;SDS011;65384;52.016;5.428;2023-05-15T04:12:34;53.63;;;17.25;;
68457;SDS011;65384;52.016;5.428;2023-05-15T04:15:16;57.13;;;18.25;;
68457;SDS011;65384;52.016;5.428;2023-05-15T04:17:43;55.05;;;17.88;;
68457;SDS011;65384;52.016;5.428;2023-05-15T04:20:09;57.17;;;17.85;;
68457;SDS011;65384;52.016;5.428;2023-05-15T04:22:35;55.33;;;18.17;;
68457;SDS011;65384;52.016;5.428;2023-05-15T04:25:01;54.25;;;18.08;;
68457;SDS011;65384;52.016;5.428;2023-05-15T04:27:26;53.80;;;17.17;;
68457;SDS011;65384;52.016;5.428;2023-05-15T04:29:51;51.15;;;16.42;;
68457;SDS011;65384;52.016;5.428;2023-05-15T04:32:17;51.30;;;16.95;;
68457;SDS011;65384;52.016;5.428;2023-05-15T04:34:42;54.58;;;17.33;;
68457;SDS011;65384;52.016;5.428;2023-05-15T04:37:09;49.60;;;16.75;;
68457;SDS011;65384;52.016;5.428;2023-05-15T04:39:34;47.65;;;15.95;;
68457;SDS011;65384;52.016;5.428;2023-05-15T04:42:00;46.40;;;15.73;;
68457;SDS011;65384;52.016;5.428;2023-05-15T04:44:26;51.13;;;15.77;;
68457;SDS011;65384;52.016;5.428;2023-05-15T04:46:51;48.30;;;16.00;;
68457;SDS011;65384;52.016;5.428;2023-05-15T04:49:16;51.90;;;16.40;;
68457;SDS011;65384;52.016;5.428;2023-05-15T04:51:42;55.63;;;17.25;;
68457;SDS011;65384;52.016;5.428;2023-05-15T04:54:07;52.05;;;16.35;;
68457;SDS011;65384;52.016;5.428;2023-05-15T04:56:32;47.85;;;16.00;;
68457;SDS011;65384;52.016;5.428;2023-05-15T04:58:58;49.60;;;16.42;;
68457;SDS011;65384;52.016;5.428;2023-05-15T05:01:23;55.08;;;16.73;;
68457;SDS011;65384;52.016;5.428;2023-05-15T05:03:49;49.25;;;16.02;;
68457;SDS011;65384;52.016;5.428;2023-05-15T05:06:14;53.88;;;15.93;;
68457;SDS011;65384;52.016;5.428;2023-05-15T05:08:40;47.10;;;15.50;;
68457;SDS011;65384;52.016;5.428;2023-05-15T05:11:05;46.45;;;16.35;;
68457;SDS011;65384;52.016;5.428;2023-05-15T05:13:30;47.45;;;17.00;;
68457;SDS011;65384;52.016;5.428;2023-05-15T05:15:56;54.10;;;17.02;;
68457;SDS011;65384;52.016;5.428;2023-05-15T05:18:21;53.03;;;17.52;;
68457;SDS011;65384;52.016;5.428;2023-05-15T05:20:46;55.15;;;17.48;;
68457;SDS011;65384;52.016;5.428;2023-05-15T05:23:12;50.67;;;17.80;;
68457;SDS011;65384;52.016;5.428;2023-05-15T05:25:39;51.53;;;17.48;;
68457;SDS011;65384;52.016;5.428;2023-05-15T05:28:04;49.40;;;17.65;;
68457;SDS011;65384;52.016;5.428;2023-05-15T05:30:29;50.08;;;17.70;;
68457;SDS011;65384;52.016;5.428;2023-05-15T05:32:55;51.47;;;18.02;;
68457;SDS011;65384;52.016;5.428;2023-05-15T05:35:20;51.95;;;18.50;;
68457;SDS011;65384;52.016;5.428;2023-05-15T05:37:45;48.70;;;18.45;;
68457;SDS011;65384;52.016;5.428;2023-05-15T05:40:11;51.45;;;18.05;;
68457;SDS011;65384;52.016;5.428;2023-05-15T05:42:36;54.08;;;18.70;;
68457;SDS011;65384;52.016;5.428;2023-05-15T05:45:02;51.40;;;18.23;;
68457;SDS011;65384;52.016;5.428;2023-05-15T05:47:28;48.17;;;17.58;;
68457;SDS011;65384;52.016;5.428;2023-05-15T05:49:53;49.97;;;18.30;;
68457;SDS011;65384;52.016;5.428;2023-05-15T05:52:19;52.28;;;18.73;;
68457;SDS011;65384;52.016;5.428;2023-05-15T05:54:44;50.40;;;18.42;;
68457;SDS011;65384;52.016;5.428;2023-05-15T05:57:11;44.53;;;17.48;;
68457;SDS011;65384;52.016;5.428;2023-05-15T05:59:38;50.03;;;18.48;;
68457;SDS011;65384;52.016;5.428;2023-05-15T06:02:03;48.15;;;18.05;;
68457;SDS011;65384;52.016;5.428;2023-05-15T06:04:29;45.13;;;18.05;;
68457;SDS011;65384;52.016;5.428;2023-05-15T06:06:55;47.15;;;18.90;;
68457;SDS011;65384;52.016;5.428;2023-05-15T06:09:21;45.65;;;18.05;;
68457;SDS011;65384;52.016;5.428;2023-05-15T06:11:47;47.75;;;18.92;;
68457;SDS011;65384;52.016;5.428;2023-05-15T06:14:12;52.30;;;19.33;;
68457;SDS011;65384;52.016;5.428;2023-05-15T06:16:37;53.58;;;20.30;;
68457;SDS011;65384;52.016;5.428;2023-05-15T06:19:03;48.30;;;18.90;;
68457;SDS011;65384;52.016;5.428;2023-05-15T06:21:28;48.63;;;18.70;;
68457;SDS011;65384;52.016;5.428;2023-05-15T06:23:53;50.53;;;18.85;;
68457;SDS011;65384;52.016;5.428;2023-05-15T06:26:19;49.22;;;18.92;;
68457;SDS011;65384;52.016;5.428;2023-05-15T06:28:45;45.13;;;18.65;;
68457;SDS011;65384;52.016;5.428;2023-05-15T06:31:11;47.35;;;18.90;;
68457;SDS011;65384;52.016;5.428;2023-05-15T06:33:36;47.50;;;18.00;;
68457;SDS011;65384;52.016;5.428;2023-05-15T06:36:01;45.53;;;18.55;;
68457;SDS011;65384;52.016;5.428;2023-05-15T06:38:27;42.33;;;18.27;;
68457;SDS011;65384;52.016;5.428;2023-05-15T06:40:52;38.10;;;16.95;;
68457;SDS011;65384;52.016;5.428;2023-05-15T06:43:18;36.95;;;16.48;;
68457;SDS011;65384;52.016;5.428;2023-05-15T06:45:43;39.03;;;17.73;;
68457;SDS011;65384;52.016;5.428;2023-05-15T06:48:08;37.75;;;17.67;;
68457;SDS011;65384;52.016;5.428;2023-05-15T06:50:34;39.95;;;17.50;;
68457;SDS011;65384;52.016;5.428;2023-05-15T06:52:59;38.92;;;16.48;;
68457;SDS011;65384;52.016;5.428;2023-05-15T06:55:25;37.97;;;16.50;;
68457;SDS011;65384;52.016;5.428;2023-05-15T06:57:50;38.13;;;16.45;;
68457;SDS011;65384;52.016;5.428;2023-05-15T07:00:16;38.83;;;16.60;;
68457;SDS011;65384;52.016;5.428;2023-05-15T07:02:41;38.05;;;17.08;;
68457;SDS011;65384;52.016;5.428;2023-05-15T07:05:07;34.28;;;16.75;;
68457;SDS011;65384;52.016;5.428;2023-05-15T07:07:34;36.55;;;16.80;;
68457;SDS011;65384;52.016;5.428;2023-05-15T07:09:59;37.17;;;16.15;;
68457;SDS011;65384;52.016;5.428;2023-05-15T07:12:25;37.88;;;16.75;;
68457;SDS011;65384;52.016;5.428;2023-05-15T07:14:50;34.20;;;16.50;;
68457;SDS011;65384;52.016;5.428;2023-05-15T07:17:15;37.92;;;16.58;;
68457;SDS011;65384;52.016;5.428;2023-05-15T07:19:41;36.22;;;16.35;;
68457;SDS011;65384;52.016;5.428;2023-05-15T07:22:06;36.25;;;16.73;;
68457;SDS011;65384;52.016;5.428;2023-05-15T07:24:32;37.65;;;17.42;;
68457;SDS011;65384;52.016;5.428;2023-05-15T07:26:57;37.15;;;17.30;;
68457;SDS011;65384;52.016;5.428;2023-05-15T07:29:23;36.60;;;17.85;;
68457;SDS011;65384;52.016;5.428;2023-05-15T07:31:48;34.50;;;17.25;;
68457;SDS011;65384;52.016;5.428;2023-05-15T07:34:14;31.42;;;16.98;;
68457;SDS011;65384;52.016;5.428;2023-05-15T07:36:39;33.38;;;17.83;;
68457;SDS011;65384;52.016;5.428;2023-05-15T07:39:04;33.05;;;16.63;;
68457;SDS011;65384;52.016;5.428;2023-05-15T07:41:30;33.17;;;16.77;;
68457;SDS011;65384;52.016;5.428;2023-05-15T07:43:57;34.05;;;16.67;;
68457;SDS011;65384;52.016;5.428;2023-05-15T07:46:22;30.30;;;16.65;;
68457;SDS011;65384;52.016;5.428;2023-05-15T07:48:48;31.20;;;16.17;;
68457;SDS011;65384;52.016;5.428;2023-05-15T07:51:13;30.73;;;16.98;;
68457;SDS011;65384;52.016;5.428;2023-05-15T07:53:38;28.85;;;15.68;;
68457;SDS011;65384;52.016;5.428;2023-05-15T07:56:04;26.63;;;15.80;;
68457;SDS011;65384;52.016;5.428;2023-05-15T07:58:29;25.88;;;14.73;;
68457;SDS011;65384;52.016;5.428;2023-05-15T08:00:55;26.33;;;15.13;;
68457;SDS011;65384;52.016;5.428;2023-05-15T08:03:20;25.02;;;14.25;;
68457;SDS011;65384;52.016;5.428;2023-05-15T08:05:45;27.02;;;15.02;;
68457;SDS011;65384;52.016;5.428;2023-05-15T08:08:11;25.00;;;14.93;;
68457;SDS011;65384;52.016;5.428;2023-05-15T08:10:36;31.13;;;15.40;;
68457;SDS011;65384;52.016;5.428;2023-05-15T08:13:01;27.67;;;15.90;;
68457;SDS011;65384;52.016;5.428;2023-05-15T08:15:27;24.85;;;14.60;;
68457;SDS011;65384;52.016;5.428;2023-05-15T08:17:53;26.83;;;15.10;;
68457;SDS011;65384;52.016;5.428;2023-05-15T08:20:18;25.20;;;15.48;;
68457;SDS011;65384;52.016;5.428;2023-05-15T08:22:43;28.65;;;15.13;;
68457;SDS011;65384;52.016;5.428;2023-05-15T08:25:09;25.98;;;14.98;;
68457;SDS011;65384;52.016;5.428;2023-05-15T08:27:34;22.98;;;14.90;;
68457;SDS011;65384;52.016;5.428;2023-05-15T08:30:00;22.92;;;13.88;;
68457;SDS011;65384;52.016;5.428;2023-05-15T08:32:25;21.52;;;14.15;;
68457;SDS011;65384;52.016;5.428;2023-05-15T08:34:51;20.35;;;12.15;;
68457;SDS011;65384;52.016;5.428;2023-05-15T08:37:16;19.90;;;13.15;;
68457;SDS011;65384;52.016;5.428;2023-05-15T08:39:42;20.02;;;12.15;;
68457;SDS011;65384;52.016;5.428;2023-05-15T08:42:09;19.15;;;12.68;;
68457;SDS011;65384;52.016;5.428;2023-05-15T08:44:43;23.52;;;13.07;;
68457;SDS011;65384;52.016;5.428;2023-05-15T08:47:08;20.65;;;12.10;;
68457;SDS011;65384;52.016;5.428;2023-05-15T08:52:10;17.33;;;11.27;;
68457;SDS011;65384;52.016;5.428;2023-05-15T08:54:35;18.15;;;11.27;;
68457;SDS011;65384;52.016;5.428;2023-05-15T08:57:01;20.85;;;12.30;;
68457;SDS011;65384;52.016;5.428;2023-05-15T08:59:26;18.52;;;11.80;;
68457;SDS011;65384;52.016;5.428;2023-05-15T09:01:52;19.85;;;11.85;;
68457;SDS011;65384;52.016;5.428;2023-05-15T09:04:17;20.48;;;11.98;;
68457;SDS011;65384;52.016;5.428;2023-05-15T09:06:43;21.25;;;12.82;;
68457;SDS011;65384;52.016;5.428;2023-05-15T09:09:09;21.52;;;12.25;;
68457;SDS011;65384;52.016;5.428;2023-05-15T09:11:38;20.48;;;11.55;;
68457;SDS011;65384;52.016;5.428;2023-05-15T09:14:05;18.10;;;9.80;;
68457;SDS011;65384;52.016;5.428;2023-05-15T09:16:33;15.68;;;9.43;;
68457;SDS011;65384;52.016;5.428;2023-05-15T09:18:58;18.23;;;9.52;;
68457;SDS011;65384;52.016;5.428;2023-05-15T09:21:24;21.02;;;11.13;;
68457;SDS011;65384;52.016;5.428;2023-05-15T09:23:54;16.75;;;10.23;;
68457;SDS011;65384;52.016;5.428;2023-05-15T09:26:21;18.63;;;11.48;;
68457;SDS011;65384;52.016;5.428;2023-05-15T09:28:47;17.35;;;11.02;;
68457;SDS011;65384;52.016;5.428;2023-05-15T09:31:13;21.38;;;11.63;;
68457;SDS011;65384;52.016;5.428;2023-05-15T09:33:39;18.30;;;10.90;;
68457;SDS011;65384;52.016;5.428;2023-05-15T09:36:06;20.23;;;11.38;;
68457;SDS011;65384;52.016;5.428;2023-05-15T09:38:32;21.60;;;12.30;;
68457;SDS011;65384;52.016;5.428;2023-05-15T09:40:59;18.48;;;11.63;;
68457;SDS011;65384;52.016;5.428;2023-05-15T09:43:32;21.45;;;11.68;;
68457;SDS011;65384;52.016;5.428;2023-05-15T09:45:58;22.92;;;11.63;;
68457;SDS011;65384;52.016;5.428;2023-05-15T09:48:23;21.10;;;11.52;;
68457;SDS011;65384;52.016;5.428;2023-05-15T09:50:49;18.25;;;10.90;;
68457;SDS011;65384;52.016;5.428;2023-05-15T09:53:14;20.75;;;11.20;;
68457;SDS011;65384;52.016;5.428;2023-05-15T09:55:40;19.98;;;10.63;;
68457;SDS011;65384;52.016;5.428;2023-05-15T10:00:37;20.25;;;11.50;;
68457;SDS011;65384;52.016;5.428;2023-05-15T10:03:04;18.90;;;11.02;;
68457;SDS011;65384;52.016;5.428;2023-05-15T10:05:30;18.52;;;11.40;;
68457;SDS011;65384;52.016;5.428;2023-05-15T10:07:57;17.30;;;10.32;;
68457;SDS011;65384;52.016;5.428;2023-05-15T10:10:23;21.98;;;13.02;;
68457;SDS011;65384;52.016;5.428;2023-05-15T10:12:50;21.08;;;13.02;;
68457;SDS011;65384;52.016;5.428;2023-05-15T10:15:16;25.05;;;14.13;;
68457;SDS011;65384;52.016;5.428;2023-05-15T10:17:43;23.73;;;13.48;;
68457;SDS011;65384;52.016;5.428;2023-05-15T10:20:12;25.25;;;13.77;;
68457;SDS011;65384;52.016;5.428;2023-05-15T10:22:39;29.38;;;15.43;;
68457;SDS011;65384;52.016;5.428;2023-05-15T10:27:31;30.15;;;15.98;;
68457;SDS011;65384;52.016;5.428;2023-05-15T10:29:59;33.00;;;16.50;;
68457;SDS011;65384;52.016;5.428;2023-05-15T10:32:27;34.33;;;16.58;;
68457;SDS011;65384;52.016;5.428;2023-05-15T10:34:53;33.22;;;17.38;;
68457;SDS011;65384;52.016;5.428;2023-05-15T10:37:19;37.20;;;17.92;;
68457;SDS011;65384;52.016;5.428;2023-05-15T10:39:46;35.72;;;17.30;;
68457;SDS011;65384;52.016;5.428;2023-05-15T10:42:11;36.08;;;16.63;;
68457;SDS011;65384;52.016;5.428;2023-05-15T10:44:37;32.63;;;16.17;;
68457;SDS011;65384;52.016;5.428;2023-05-15T10:47:02;32.58;;;16.23;;
68457;SDS011;65384;52.016;5.428;2023-05-15T10:49:28;31.67;;;16.27;;
68457;SDS011;65384;52.016;5.428;2023-05-15T10:51:54;33.13;;;16.23;;
68457;SDS011;65384;52.016;5.428;2023-05-15T10:54:20;34.17;;;15.95;;
68457;SDS011;65384;52.016;5.428;2023-05-15T10:56:46;29.80;;;15.88;;
68457;SDS011;65384;52.016;5.428;2023-05-15T10:59:11;31.65;;;15.70;;
68457;SDS011;65384;52.016;5.428;2023-05-15T11:01:37;31.48;;;15.65;;
68457;SDS011;65384;52.016;5.428;2023-05-15T11:06:36;30.38;;;15.23;;
68457;SDS011;65384;52.016;5.428;2023-05-15T11:12:00;31.08;;;14.75;;
68457;SDS011;65384;52.016;5.428;2023-05-15T11:14:27;29.85;;;14.43;;
68457;SDS011;65384;52.016;5.428;2023-05-15T11:19:23;27.27;;;14.13;;
68457;SDS011;65384;52.016;5.428;2023-05-15T11:22:01;28.23;;;14.02;;
68457;SDS011;65384;52.016;5.428;2023-05-15T11:35:09;28.92;;;13.27;;
68457;SDS011;65384;52.016;5.428;2023-05-15T11:37:36;27.48;;;13.82;;
68457;SDS011;65384;52.016;5.428;2023-05-15T11:40:05;26.30;;;13.15;;
68457;SDS011;65384;52.016;5.428;2023-05-15T11:42:31;24.05;;;13.13;;
68457;SDS011;65384;52.016;5.428;2023-05-15T11:44:56;29.30;;;14.02;;
68457;SDS011;65384;52.016;5.428;2023-05-15T11:47:22;29.15;;;13.82;;
68457;SDS011;65384;52.016;5.428;2023-05-15T11:49:47;30.63;;;14.05;;
68457;SDS011;65384;52.016;5.428;2023-05-15T11:52:13;31.08;;;13.90;;
68457;SDS011;65384;52.016;5.428;2023-05-15T11:54:39;27.50;;;12.98;;
68457;SDS011;65384;52.016;5.428;2023-05-15T11:57:06;28.20;;;13.77;;
68457;SDS011;65384;52.016;5.428;2023-05-15T11:59:31;28.83;;;13.70;;
68457;SDS011;65384;52.016;5.428;2023-05-15T12:01:58;26.67;;;13.20;;
68457;SDS011;65384;52.016;5.428;2023-05-15T12:04:23;26.45;;;13.48;;
68457;SDS011;65384;52.016;5.428;2023-05-15T12:06:48;23.33;;;12.63;;
68457;SDS011;65384;52.016;5.428;2023-05-15T12:09:14;26.15;;;12.05;;
68457;SDS011;65384;52.016;5.428;2023-05-15T12:11:47;27.40;;;13.45;;
68457;SDS011;65384;52.016;5.428;2023-05-15T12:14:13;29.60;;;13.43;;
68457;SDS011;65384;52.016;5.428;2023-05-15T12:16:38;24.80;;;12.52;;
68457;SDS011;65384;52.016;5.428;2023-05-15T12:19:03;26.33;;;12.90;;
68457;SDS011;65384;52.016;5.428;2023-05-15T12:21:29;24.05;;;12.48;;
68457;SDS011;65384;52.016;5.428;2023-05-15T12:23:54;22.55;;;12.13;;
68457;SDS011;65384;52.016;5.428;2023-05-15T12:26:20;22.83;;;12.43;;
68457;SDS011;65384;52.016;5.428;2023-05-15T12:28:47;26.45;;;13.13;;
68457;SDS011;65384;52.016;5.428;2023-05-15T12:31:12;24.77;;;12.15;;
68457;SDS011;65384;52.016;5.428;2023-05-15T12:33:38;24.02;;;11.73;;
68457;SDS011;65384;52.016;5.428;2023-05-15T12:36:03;23.17;;;12.38;;
68457;SDS011;65384;52.016;5.428;2023-05-15T12:38:30;25.25;;;12.65;;
68457;SDS011;65384;52.016;5.428;2023-05-15T12:40:57;21.15;;;12.00;;
68457;SDS011;65384;52.016;5.428;2023-05-15T12:43:23;22.15;;;12.05;;
68457;SDS011;65384;52.016;5.428;2023-05-15T12:45:50;25.13;;;13.18;;
68457;SDS011;65384;52.016;5.428;2023-05-15T12:48:16;22.88;;;11.85;;
68457;SDS011;65384;52.016;5.428;2023-05-15T12:50:43;21.83;;;11.60;;
68457;SDS011;65384;52.016;5.428;2023-05-15T12:53:11;21.00;;;11.77;;
68457;SDS011;65384;52.016;5.428;2023-05-15T12:55:37;21.42;;;12.07;;
68457;SDS011;65384;52.016;5.428;2023-05-15T12:58:07;22.63;;;11.52;;
68457;SDS011;65384;52.016;5.428;2023-05-15T13:00:36;20.02;;;11.43;;
68457;SDS011;65384;52.016;5.428;2023-05-15T13:03:10;21.17;;;12.30;;
68457;SDS011;65384;52.016;5.428;2023-05-15T13:05:36;18.10;;;10.55;;
68457;SDS011;65384;52.016;5.428;2023-05-15T13:08:02;21.50;;;10.35;;
68457;SDS011;65384;52.016;5.428;2023-05-15T13:10:31;18.10;;;10.10;;
68457;SDS011;65384;52.016;5.428;2023-05-15T13:12:57;16.17;;;8.75;;
68457;SDS011;65384;52.016;5.428;2023-05-15T13:15:28;14.30;;;8.90;;
68457;SDS011;65384;52.016;5.428;2023-05-15T13:18:01;11.43;;;7.68;;
68457;SDS011;65384;52.016;5.428;2023-05-15T13:20:28;10.13;;;7.07;;
68457;SDS011;65384;52.016;5.428;2023-05-15T13:22:57;10.60;;;7.30;;
68457;SDS011;65384;52.016;5.428;2023-05-15T13:25:22;12.73;;;7.75;;
68457;SDS011;65384;52.016;5.428;2023-05-15T13:27:47;12.48;;;7.47;;
68457;SDS011;65384;52.016;5.428;2023-05-15T13:30:13;12.88;;;7.50;;
68457;SDS011;65384;52.016;5.428;2023-05-15T13:32:39;13.60;;;7.50;;
68457;SDS011;65384;52.016;5.428;2023-05-15T13:35:04;13.50;;;7.32;;
68457;SDS011;65384;52.016;5.428;2023-05-15T13:37:30;11.13;;;6.93;;
68457;SDS011;65384;52.016;5.428;2023-05-15T13:39:56;13.98;;;6.95;;
68457;SDS011;65384;52.016;5.428;2023-05-15T13:42:21;14.98;;;6.68;;
68457;SDS011;65384;52.016;5.428;2023-05-15T13:44:46;13.50;;;6.15;;
68457;SDS011;65384;52.016;5.428;2023-05-15T13:47:12;13.65;;;6.70;;
68457;SDS011;65384;52.016;5.428;2023-05-15T13:49:37;14.13;;;7.57;;
68457;SDS011;65384;52.016;5.428;2023-05-15T13:52:02;14.07;;;7.63;;
68457;SDS011;65384;52.016;5.428;2023-05-15T13:54:28;14.82;;;7.47;;
68457;SDS011;65384;52.016;5.428;2023-05-15T13:56:54;17.00;;;8.20;;
68457;SDS011;65384;52.016;5.428;2023-05-15T13:59:19;16.08;;;7.53;;
68457;SDS011;65384;52.016;5.428;2023-05-15T14:01:45;18.27;;;7.93;;
68457;SDS011;65384;52.016;5.428;2023-05-15T14:04:11;15.30;;;7.40;;
68457;SDS011;65384;52.016;5.428;2023-05-15T14:06:36;15.52;;;7.03;;
68457;SDS011;65384;52.016;5.428;2023-05-15T14:09:01;18.05;;;7.40;;
68457;SDS011;65384;52.016;5.428;2023-05-15T14:11:27;15.50;;;7.30;;
68457;SDS011;65384;52.016;5.428;2023-05-15T14:13:52;13.43;;;6.93;;
68457;SDS011;65384;52.016;5.428;2023-05-15T14:16:18;13.70;;;7.45;;
68457;SDS011;65384;52.016;5.428;2023-05-15T14:18:43;13.23;;;7.40;;
68457;SDS011;65384;52.016;5.428;2023-05-15T14:21:08;16.95;;;7.35;;
68457;SDS011;65384;52.016;5.428;2023-05-15T14:23:34;12.25;;;7.28;;
68457;SDS011;65384;52.016;5.428;2023-05-15T14:25:59;13.52;;;6.85;;
68457;SDS011;65384;52.016;5.428;2023-05-15T14:28:25;11.02;;;6.47;;
68457;SDS011;65384;52.016;5.428;2023-05-15T14:30:50;10.93;;;5.93;;
68457;SDS011;65384;52.016;5.428;2023-05-15T14:33:15;9.38;;;4.90;;
68457;SDS011;65384;52.016;5.428;2023-05-15T14:35:41;10.60;;;4.97;;
68457;SDS011;65384;52.016;5.428;2023-05-15T14:38:06;11.15;;;5.75;;
68457;SDS011;65384;52.016;5.428;2023-05-15T14:40:31;10.45;;;4.90;;
68457;SDS011;65384;52.016;5.428;2023-05-15T14:42:57;10.95;;;5.68;;
68457;SDS011;65384;52.016;5.428;2023-05-15T14:45:22;10.60;;;5.53;;
68457;SDS011;65384;52.016;5.428;2023-05-15T14:47:47;10.15;;;5.00;;
68457;SDS011;65384;52.016;5.428;2023-05-15T14:50:13;8.30;;;4.65;;
68457;SDS011;65384;52.016;5.428;2023-05-15T14:52:38;9.82;;;4.30;;
68457;SDS011;65384;52.016;5.428;2023-05-15T14:55:04;9.27;;;4.75;;
68457;SDS011;65384;52.016;5.428;2023-05-15T14:57:30;8.52;;;3.97;;
68457;SDS011;65384;52.016;5.428;2023-05-15T14:59:56;7.68;;;3.72;;
68457;SDS011;65384;52.016;5.428;2023-05-15T15:02:21;7.95;;;3.58;;
68457;SDS011;65384;52.016;5.428;2023-05-15T15:04:46;7.38;;;3.83;;